createdAt,value
2022-10-31T00:00:33.875Z,1006.90
2022-10-31T00:01:33.828Z,1006.91
2022-10-31T00:02:33.836Z,1006.94
2022-10-31T00:03:33.795Z,1006.92
2022-10-31T00:04:33.756Z,1006.92
2022-10-31T00:05:33.757Z,1006.94
2022-10-31T00:06:33.729Z,1006.91
2022-10-31T00:07:33.715Z,1006.92
2022-10-31T00:08:33.858Z,1006.96
2022-10-31T00:09:33.737Z,1006.92
2022-10-31T00:10:33.737Z,1006.98
2022-10-31T00:11:33.710Z,1006.92
2022-10-31T00:12:33.657Z,1006.91
2022-10-31T00:13:33.663Z,1006.97
2022-10-31T00:14:33.647Z,1006.98
2022-10-31T00:15:33.623Z,1006.94
2022-10-31T00:16:33.674Z,1007.01
2022-10-31T00:17:33.651Z,1007.00
2022-10-31T00:18:33.637Z,1006.99
2022-10-31T00:19:33.577Z,1006.95
2022-10-31T00:20:33.570Z,1006.97
2022-10-31T00:21:33.580Z,1007.04
2022-10-31T00:22:33.562Z,1006.97
2022-10-31T00:23:33.574Z,1007.04
2022-10-31T00:24:33.573Z,1007.06
2022-10-31T00:25:33.545Z,1007.05
2022-10-31T00:26:33.550Z,1007.06
2022-10-31T00:27:33.498Z,1007.08
2022-10-31T00:28:33.504Z,1007.08
2022-10-31T00:29:33.535Z,1007.07
2022-10-31T00:30:33.486Z,1007.07
2022-10-31T00:31:33.447Z,1007.06
2022-10-31T00:32:33.486Z,1007.08
2022-10-31T00:33:33.442Z,1007.08
2022-10-31T00:34:33.416Z,1007.04
2022-10-31T00:35:33.452Z,1007.09
2022-10-31T00:36:33.413Z,1007.10
2022-10-31T00:37:33.393Z,1007.17
2022-10-31T00:38:33.391Z,1007.15
2022-10-31T00:39:33.842Z,1007.13
2022-10-31T00:40:33.367Z,1007.15
2022-10-31T00:41:33.387Z,1007.17
2022-10-31T00:42:33.350Z,1007.09
2022-10-31T00:43:33.332Z,1007.08
2022-10-31T00:44:33.307Z,1007.17
2022-10-31T00:45:33.335Z,1007.17
2022-10-31T00:46:33.288Z,1007.14
2022-10-31T00:47:33.324Z,1007.18
2022-10-31T00:48:33.268Z,1007.20
2022-10-31T00:49:33.261Z,1007.14
2022-10-31T00:50:33.336Z,1007.20
2022-10-31T00:51:33.243Z,1007.15
2022-10-31T00:52:33.258Z,1007.19
2022-10-31T00:53:33.224Z,1007.22
2022-10-31T00:54:33.203Z,1007.18
2022-10-31T00:55:33.270Z,1007.18
2022-10-31T00:56:33.224Z,1007.25
2022-10-31T00:57:33.174Z,1007.20
2022-10-31T00:58:33.205Z,1007.21
2022-10-31T00:59:33.155Z,1007.25
2022-10-31T01:00:33.173Z,1007.21
2022-10-31T01:01:33.233Z,1007.21
2022-10-31T01:02:33.278Z,1007.19
2022-10-31T01:03:33.153Z,1007.21
2022-10-31T01:04:33.097Z,1007.23
2022-10-31T01:05:33.083Z,1007.25
2022-10-31T01:06:33.105Z,1007.25
2022-10-31T01:07:33.064Z,1007.30
2022-10-31T01:08:33.093Z,1007.27
2022-10-31T01:09:33.070Z,1007.32
2022-10-31T01:10:33.077Z,1007.28
2022-10-31T01:11:33.012Z,1007.27
2022-10-31T01:12:33.005Z,1007.31
2022-10-31T01:13:33.088Z,1007.33
2022-10-31T01:14:32.999Z,1007.31
2022-10-31T01:15:32.997Z,1007.29
2022-10-31T01:16:33.011Z,1007.29
2022-10-31T01:17:32.966Z,1007.29
2022-10-31T01:18:32.962Z,1007.34
2022-10-31T01:19:32.931Z,1007.30
2022-10-31T01:20:32.970Z,1007.33
2022-10-31T01:21:32.931Z,1007.29
2022-10-31T01:22:32.943Z,1007.27
2022-10-31T01:23:32.885Z,1007.30
2022-10-31T01:24:32.886Z,1007.29
2022-10-31T01:25:32.869Z,1007.31
2022-10-31T01:26:32.902Z,1007.29
2022-10-31T01:27:32.863Z,1007.27
2022-10-31T01:28:32.876Z,1007.32
2022-10-31T01:29:32.821Z,1007.23
2022-10-31T01:30:32.849Z,1007.29
2022-10-31T01:31:32.841Z,1007.31
2022-10-31T01:32:32.798Z,1007.27
2022-10-31T01:33:32.813Z,1007.32
2022-10-31T01:34:32.766Z,1007.26
2022-10-31T01:35:32.756Z,1007.25
2022-10-31T01:36:32.827Z,1007.23
2022-10-31T01:37:32.736Z,1007.29
2022-10-31T01:38:32.740Z,1007.31
2022-10-31T01:39:32.708Z,1007.35
2022-10-31T01:40:32.699Z,1007.29
2022-10-31T01:41:32.690Z,1007.24
2022-10-31T01:42:32.717Z,1007.29
2022-10-31T01:43:32.678Z,1007.28
2022-10-31T01:44:32.670Z,1007.28
2022-10-31T01:45:32.642Z,1007.28
2022-10-31T01:46:32.639Z,1007.29
2022-10-31T01:47:32.689Z,1007.31
2022-10-31T01:48:32.653Z,1007.28
2022-10-31T01:49:32.666Z,1007.31
2022-10-31T01:50:32.618Z,1007.27
2022-10-31T01:51:32.577Z,1007.30
2022-10-31T01:52:32.625Z,1007.31
2022-10-31T01:53:32.567Z,1007.32
2022-10-31T01:54:32.544Z,1007.34
2022-10-31T01:55:32.550Z,1007.38
2022-10-31T01:56:32.544Z,1007.34
2022-10-31T01:57:32.526Z,1007.28
2022-10-31T01:58:32.564Z,1007.35
2022-10-31T01:59:32.530Z,1007.32
2022-10-31T02:00:32.524Z,1007.29
2022-10-31T02:01:32.571Z,1007.28
2022-10-31T02:02:32.709Z,1007.29
2022-10-31T02:03:32.507Z,1007.32
2022-10-31T02:04:32.436Z,1007.29
2022-10-31T02:05:32.440Z,1007.29
2022-10-31T02:06:32.422Z,1007.31
2022-10-31T02:07:32.432Z,1007.35
2022-10-31T02:08:32.447Z,1007.28
2022-10-31T02:09:32.381Z,1007.25
2022-10-31T02:10:32.441Z,1007.29
2022-10-31T02:11:32.407Z,1007.30
2022-10-31T02:12:32.354Z,1007.28
2022-10-31T02:13:32.361Z,1007.29
2022-10-31T02:14:32.331Z,1007.28
2022-10-31T02:15:32.316Z,1007.33
2022-10-31T02:16:32.325Z,1007.31
2022-10-31T02:17:32.329Z,1007.28
2022-10-31T02:18:32.295Z,1007.29
2022-10-31T02:19:32.310Z,1007.29
2022-10-31T02:20:32.317Z,1007.35
2022-10-31T02:21:32.269Z,1007.30
2022-10-31T02:22:32.343Z,1007.40
2022-10-31T02:23:32.269Z,1007.31
2022-10-31T02:24:32.242Z,1007.35
2022-10-31T02:25:32.205Z,1007.35
2022-10-31T02:26:32.195Z,1007.35
2022-10-31T02:27:32.217Z,1007.38
2022-10-31T02:28:32.258Z,1007.42
2022-10-31T02:29:32.168Z,1007.42
2022-10-31T02:30:32.171Z,1007.44
2022-10-31T02:31:32.233Z,1007.41
2022-10-31T02:32:32.128Z,1007.45
2022-10-31T02:33:32.186Z,1007.49
2022-10-31T02:34:32.128Z,1007.41
2022-10-31T02:35:32.146Z,1007.46
2022-10-31T02:36:32.110Z,1007.46
2022-10-31T02:37:32.104Z,1007.46
2022-10-31T02:38:32.070Z,1007.51
2022-10-31T02:39:32.072Z,1007.44
2022-10-31T02:40:32.085Z,1007.45
2022-10-31T02:41:32.044Z,1007.51
2022-10-31T02:42:32.042Z,1007.47
2022-10-31T02:43:32.020Z,1007.49
2022-10-31T02:44:32.000Z,1007.49
2022-10-31T02:45:32.085Z,1007.51
2022-10-31T02:46:31.977Z,1007.51
2022-10-31T02:47:31.980Z,1007.49
2022-10-31T02:48:31.969Z,1007.50
2022-10-31T02:49:31.946Z,1007.51
2022-10-31T02:50:32.024Z,1007.51
2022-10-31T02:51:31.971Z,1007.51
2022-10-31T02:52:31.915Z,1007.57
2022-10-31T02:53:31.935Z,1007.59
2022-10-31T02:54:31.924Z,1007.65
2022-10-31T02:55:31.954Z,1007.59
2022-10-31T02:56:31.877Z,1007.56
2022-10-31T02:57:31.863Z,1007.60
2022-10-31T02:58:31.865Z,1007.57
2022-10-31T02:59:31.842Z,1007.59
2022-10-31T03:00:31.905Z,1007.60
2022-10-31T03:01:31.954Z,1007.58
2022-10-31T03:02:32.032Z,1007.61
2022-10-31T03:03:31.839Z,1007.60
2022-10-31T03:04:31.825Z,1007.62
2022-10-31T03:05:31.778Z,1007.64
2022-10-31T03:06:31.779Z,1007.66
2022-10-31T03:07:31.748Z,1007.64
2022-10-31T03:08:31.739Z,1007.74
2022-10-31T03:09:31.789Z,1007.66
2022-10-31T03:10:31.718Z,1007.69
2022-10-31T03:11:31.753Z,1007.72
2022-10-31T03:12:31.694Z,1007.77
2022-10-31T03:13:31.702Z,1007.70
2022-10-31T03:14:31.734Z,1007.70
2022-10-31T03:15:31.666Z,1007.71
2022-10-31T03:16:31.654Z,1007.71
2022-10-31T03:17:31.678Z,1007.73
2022-10-31T03:18:31.668Z,1007.71
2022-10-31T03:19:31.622Z,1007.74
2022-10-31T03:20:31.614Z,1007.78
2022-10-31T03:21:31.639Z,1007.74
2022-10-31T03:22:31.593Z,1007.77
2022-10-31T03:23:31.648Z,1007.75
2022-10-31T03:24:31.560Z,1007.76
2022-10-31T03:25:31.603Z,1007.79
2022-10-31T03:26:31.622Z,1007.74
2022-10-31T03:27:31.567Z,1007.74
2022-10-31T03:28:31.532Z,1007.75
2022-10-31T03:29:31.509Z,1007.71
2022-10-31T03:30:31.498Z,1007.72
2022-10-31T03:31:31.550Z,1007.76
2022-10-31T03:32:31.495Z,1007.77
2022-10-31T03:33:31.463Z,1007.75
2022-10-31T03:34:31.502Z,1007.80
2022-10-31T03:35:31.482Z,1007.75
2022-10-31T03:36:31.433Z,1007.82
2022-10-31T03:37:31.458Z,1007.76
2022-10-31T03:38:31.435Z,1007.79
2022-10-31T03:39:31.397Z,1007.78
2022-10-31T03:40:31.395Z,1007.78
2022-10-31T03:41:31.399Z,1007.79
2022-10-31T03:42:31.407Z,1007.80
2022-10-31T03:43:31.355Z,1007.82
2022-10-31T03:44:31.375Z,1007.78
2022-10-31T03:45:31.337Z,1007.87
2022-10-31T03:46:31.328Z,1007.84
2022-10-31T03:47:31.341Z,1007.86
2022-10-31T03:48:31.343Z,1007.94
2022-10-31T03:49:31.338Z,1007.86
2022-10-31T03:50:31.278Z,1007.86
2022-10-31T03:51:31.285Z,1007.83
2022-10-31T03:52:31.251Z,1007.90
2022-10-31T03:53:31.289Z,1007.88
2022-10-31T03:54:31.236Z,1007.83
2022-10-31T03:55:31.229Z,1007.87
2022-10-31T03:56:31.243Z,1007.89
2022-10-31T03:57:31.255Z,1007.95
2022-10-31T03:58:31.211Z,1007.95
2022-10-31T03:59:31.188Z,1007.96
2022-10-31T04:00:31.202Z,1007.94
2022-10-31T04:01:31.237Z,1007.91
2022-10-31T04:02:31.270Z,1007.92
2022-10-31T04:03:31.138Z,1007.92
2022-10-31T04:04:31.207Z,1007.90
2022-10-31T04:05:31.110Z,1007.88
2022-10-31T04:06:31.103Z,1007.93
2022-10-31T04:07:31.111Z,1007.98
2022-10-31T04:08:31.122Z,1007.96
2022-10-31T04:09:31.107Z,1007.93
2022-10-31T04:10:33.183Z,1007.95
2022-10-31T04:11:31.055Z,1007.92
2022-10-31T04:12:31.044Z,1007.95
2022-10-31T04:13:31.039Z,1007.93
2022-10-31T04:14:31.022Z,1007.98
2022-10-31T04:15:31.038Z,1007.93
2022-10-31T04:16:31.089Z,1007.95
2022-10-31T04:17:31.040Z,1007.92
2022-10-31T04:18:31.035Z,1007.93
2022-10-31T04:19:31.000Z,1007.96
2022-10-31T04:20:30.961Z,1007.96
2022-10-31T04:21:30.979Z,1008.06
2022-10-31T04:22:30.923Z,1008.02
2022-10-31T04:23:30.974Z,1008.06
2022-10-31T04:24:30.905Z,1008.01
2022-10-31T04:25:30.947Z,1008.05
2022-10-31T04:26:30.937Z,1008.09
2022-10-31T04:27:30.869Z,1008.02
2022-10-31T04:28:30.856Z,1008.05
2022-10-31T04:29:30.860Z,1008.04
2022-10-31T04:30:30.866Z,1008.00
2022-10-31T04:31:30.833Z,1007.99
2022-10-31T04:32:30.855Z,1008.03
2022-10-31T04:33:30.799Z,1008.07
2022-10-31T04:34:30.787Z,1008.02
2022-10-31T04:35:30.778Z,1008.07
2022-10-31T04:36:30.769Z,1008.04
2022-10-31T04:37:30.780Z,1008.05
2022-10-31T04:38:30.914Z,1008.12
2022-10-31T04:39:30.735Z,1008.05
2022-10-31T04:40:30.732Z,1008.11
2022-10-31T04:41:30.713Z,1008.09
2022-10-31T04:42:30.700Z,1008.12
2022-10-31T04:43:30.747Z,1008.16
2022-10-31T04:44:30.689Z,1008.13
2022-10-31T04:45:30.731Z,1008.14
2022-10-31T04:46:30.667Z,1008.16
2022-10-31T04:47:30.649Z,1008.19
2022-10-31T04:48:30.637Z,1008.15
2022-10-31T04:49:30.690Z,1008.18
2022-10-31T04:50:30.613Z,1008.18
2022-10-31T04:51:30.606Z,1008.17
2022-10-31T04:52:30.609Z,1008.16
2022-10-31T04:53:30.595Z,1008.22
2022-10-31T04:54:30.625Z,1008.24
2022-10-31T04:55:30.571Z,1008.25
2022-10-31T04:56:30.545Z,1008.23
2022-10-31T04:57:30.541Z,1008.31
2022-10-31T04:58:30.524Z,1008.28
2022-10-31T04:59:30.530Z,1008.28
2022-10-31T05:00:30.558Z,1008.31
2022-10-31T05:01:30.655Z,1008.25
2022-10-31T05:02:30.606Z,1008.32
2022-10-31T05:03:30.493Z,1008.30
2022-10-31T05:04:30.463Z,1008.24
2022-10-31T05:05:30.455Z,1008.25
2022-10-31T05:06:30.441Z,1008.24
2022-10-31T05:07:30.484Z,1008.28
2022-10-31T05:08:30.424Z,1008.28
2022-10-31T05:09:30.406Z,1008.26
2022-10-31T05:10:30.445Z,1008.23
2022-10-31T05:11:30.385Z,1008.21
2022-10-31T05:12:30.419Z,1008.19
2022-10-31T05:13:30.413Z,1008.24
2022-10-31T05:14:30.357Z,1008.19
2022-10-31T05:15:30.341Z,1008.25
2022-10-31T05:16:30.329Z,1008.21
2022-10-31T05:17:30.375Z,1008.23
2022-10-31T05:18:30.321Z,1008.22
2022-10-31T05:19:30.309Z,1008.22
2022-10-31T05:20:30.300Z,1008.26
2022-10-31T05:21:30.330Z,1008.14
2022-10-31T05:22:30.270Z,1008.22
2022-10-31T05:23:30.258Z,1008.19
2022-10-31T05:24:30.265Z,1008.26
2022-10-31T05:25:30.228Z,1008.19
2022-10-31T05:26:30.255Z,1008.21
2022-10-31T05:27:30.217Z,1008.16
2022-10-31T05:28:30.211Z,1008.18
2022-10-31T05:29:30.191Z,1008.21
2022-10-31T05:30:30.229Z,1008.22
2022-10-31T05:31:30.197Z,1008.17
2022-10-31T05:32:30.152Z,1008.20
2022-10-31T05:33:30.163Z,1008.19
2022-10-31T05:34:30.187Z,1008.21
2022-10-31T05:35:30.131Z,1008.24
2022-10-31T05:36:30.158Z,1008.23
2022-10-31T05:37:30.103Z,1008.20
2022-10-31T05:38:30.146Z,1008.23
2022-10-31T05:39:30.091Z,1008.23
2022-10-31T05:40:30.066Z,1008.27
2022-10-31T05:41:30.061Z,1008.32
2022-10-31T05:42:30.089Z,1008.27
2022-10-31T05:43:30.072Z,1008.29
2022-10-31T05:44:30.017Z,1008.28
2022-10-31T05:45:30.047Z,1008.32
2022-10-31T05:46:30.051Z,1008.31
2022-10-31T05:47:30.093Z,1008.26
2022-10-31T05:48:29.993Z,1008.31
2022-10-31T05:49:29.983Z,1008.23
2022-10-31T05:50:29.959Z,1008.24
2022-10-31T05:51:29.953Z,1008.21
2022-10-31T05:52:29.967Z,1008.22
2022-10-31T05:53:29.926Z,1008.25
2022-10-31T05:54:29.928Z,1008.22
2022-10-31T05:55:29.964Z,1008.18
2022-10-31T05:56:29.955Z,1008.26
2022-10-31T05:57:29.888Z,1008.20
2022-10-31T05:58:29.869Z,1008.25
2022-10-31T05:59:29.871Z,1008.28
2022-10-31T06:00:29.883Z,1008.25
2022-10-31T06:01:29.876Z,1008.21
2022-10-31T06:02:29.840Z,1008.24
2022-10-31T06:03:29.862Z,1008.24
2022-10-31T06:04:29.821Z,1008.32
2022-10-31T06:05:29.807Z,1008.31
2022-10-31T06:06:29.776Z,1008.29
2022-10-31T06:07:29.766Z,1008.35
2022-10-31T06:08:29.772Z,1008.32
2022-10-31T06:09:29.789Z,1008.32
2022-10-31T06:10:29.794Z,1008.32
2022-10-31T06:11:29.741Z,1008.32
2022-10-31T06:12:30.849Z,1008.31
2022-10-31T06:13:29.703Z,1008.33
2022-10-31T06:14:29.703Z,1008.37
2022-10-31T06:15:29.794Z,1008.33
2022-10-31T06:16:29.680Z,1008.39
2022-10-31T06:17:29.655Z,1008.39
2022-10-31T06:18:29.699Z,1008.42
2022-10-31T06:19:29.637Z,1008.42
2022-10-31T06:20:29.636Z,1008.42
2022-10-31T06:21:29.634Z,1008.44
2022-10-31T06:22:29.632Z,1008.39
2022-10-31T06:23:29.628Z,1008.44
2022-10-31T06:24:29.581Z,1008.41
2022-10-31T06:25:29.579Z,1008.47
2022-10-31T06:26:29.576Z,1008.47
2022-10-31T06:27:29.555Z,1008.49
2022-10-31T06:28:29.594Z,1008.51
2022-10-31T06:29:29.525Z,1008.50
2022-10-31T06:30:29.515Z,1008.48
2022-10-31T06:31:29.522Z,1008.54
2022-10-31T06:32:29.517Z,1008.48
2022-10-31T06:33:29.490Z,1008.51
2022-10-31T06:34:29.527Z,1008.54
2022-10-31T06:35:29.469Z,1008.53
2022-10-31T06:36:29.457Z,1008.54
2022-10-31T06:37:29.467Z,1008.58
2022-10-31T06:38:29.429Z,1008.54
2022-10-31T06:39:29.466Z,1008.54
2022-10-31T06:40:29.422Z,1008.61
2022-10-31T06:41:29.452Z,1008.60
2022-10-31T06:42:29.388Z,1008.68
2022-10-31T06:43:29.382Z,1008.61
2022-10-31T06:44:29.368Z,1008.66
2022-10-31T06:45:29.409Z,1008.73
2022-10-31T06:46:29.370Z,1008.65
2022-10-31T06:47:29.339Z,1008.66
2022-10-31T06:48:29.334Z,1008.70
2022-10-31T06:49:29.311Z,1008.67
2022-10-31T06:50:29.330Z,1008.67
2022-10-31T06:51:29.322Z,1008.71
2022-10-31T06:52:29.277Z,1008.77
2022-10-31T06:53:29.286Z,1008.78
2022-10-31T06:54:29.270Z,1008.77
2022-10-31T06:55:29.247Z,1008.80
2022-10-31T06:56:29.270Z,1008.83
2022-10-31T06:57:29.234Z,1008.78
2022-10-31T06:58:29.209Z,1008.82
2022-10-31T06:59:29.198Z,1008.77
2022-10-31T07:00:29.246Z,1008.78
2022-10-31T07:01:29.336Z,1008.81
2022-10-31T07:02:29.268Z,1008.78
2022-10-31T07:03:29.178Z,1008.81
2022-10-31T07:04:29.145Z,1008.80
2022-10-31T07:05:29.132Z,1008.80
2022-10-31T07:06:29.121Z,1008.81
2022-10-31T07:07:29.169Z,1008.78
2022-10-31T07:08:29.160Z,1008.77
2022-10-31T07:09:29.112Z,1008.76
2022-10-31T07:10:29.185Z,1008.73
2022-10-31T07:11:29.075Z,1008.72
2022-10-31T07:12:29.100Z,1008.74
2022-10-31T07:13:29.043Z,1008.77
2022-10-31T07:14:29.057Z,1008.81
2022-10-31T07:15:29.038Z,1008.82
2022-10-31T07:16:29.016Z,1008.87
2022-10-31T07:17:30.180Z,1008.85
2022-10-31T07:18:29.030Z,1008.91
2022-10-31T07:19:28.995Z,1008.86
2022-10-31T07:20:28.978Z,1008.90
2022-10-31T07:21:28.956Z,1008.93
2022-10-31T07:22:29.019Z,1008.92
2022-10-31T07:23:28.982Z,1008.97
2022-10-31T07:24:28.932Z,1009.00
2022-10-31T07:25:28.929Z,1008.94
2022-10-31T07:26:28.912Z,1009.00
2022-10-31T07:27:28.947Z,1009.04
2022-10-31T07:28:28.886Z,1009.04
2022-10-31T07:29:28.872Z,1009.02
2022-10-31T07:30:28.941Z,1009.03
2022-10-31T07:31:28.851Z,1009.03
2022-10-31T07:32:28.842Z,1009.08
2022-10-31T07:33:28.887Z,1009.05
2022-10-31T07:34:28.822Z,1009.07
2022-10-31T07:35:28.803Z,1009.09
2022-10-31T07:36:28.800Z,1009.11
2022-10-31T07:37:28.789Z,1009.08
2022-10-31T07:38:28.852Z,1009.06
2022-10-31T07:39:28.759Z,1009.09
2022-10-31T07:40:28.793Z,1009.07
2022-10-31T07:41:28.757Z,1009.10
2022-10-31T07:42:28.780Z,1009.08
2022-10-31T07:43:28.722Z,1009.08
2022-10-31T07:44:28.733Z,1009.13
2022-10-31T07:45:28.691Z,1009.10
2022-10-31T07:46:28.684Z,1009.11
2022-10-31T07:47:28.719Z,1009.12
2022-10-31T07:48:28.698Z,1009.11
2022-10-31T07:49:28.663Z,1009.09
2022-10-31T07:50:28.706Z,1009.05
2022-10-31T07:51:28.631Z,1009.09
2022-10-31T07:52:28.618Z,1009.09
2022-10-31T07:53:28.613Z,1009.09
2022-10-31T07:54:28.629Z,1009.14
2022-10-31T07:55:28.583Z,1009.06
2022-10-31T07:56:28.572Z,1009.11
2022-10-31T07:57:34.283Z,1009.10
2022-10-31T07:58:29.596Z,1009.06
2022-10-31T07:59:28.553Z,1009.10
2022-10-31T08:00:28.578Z,1009.09
2022-10-31T08:01:28.526Z,1009.10
2022-10-31T08:02:28.538Z,1009.09
2022-10-31T08:03:28.536Z,1009.12
2022-10-31T08:04:28.494Z,1009.08
2022-10-31T08:05:28.509Z,1009.04
2022-10-31T08:06:28.509Z,1009.10
2022-10-31T08:07:28.589Z,1009.04
2022-10-31T08:08:28.447Z,1009.09
2022-10-31T08:09:28.429Z,1009.03
2022-10-31T08:10:28.447Z,1009.07
2022-10-31T08:11:28.410Z,1009.08
2022-10-31T08:12:28.446Z,1009.07
2022-10-31T08:13:28.458Z,1009.05
2022-10-31T08:14:28.379Z,1009.04
2022-10-31T08:15:28.365Z,1009.10
2022-10-31T08:16:28.384Z,1009.08
2022-10-31T08:17:28.381Z,1009.08
2022-10-31T08:18:28.393Z,1009.09
2022-10-31T08:19:28.335Z,1009.04
2022-10-31T08:20:28.368Z,1009.04
2022-10-31T08:21:28.298Z,1009.06
2022-10-31T08:22:28.303Z,1009.05
2022-10-31T08:23:28.313Z,1009.09
2022-10-31T08:24:28.396Z,1009.07
2022-10-31T08:25:30.923Z,1009.07
2022-10-31T08:26:28.247Z,1009.12
2022-10-31T08:27:28.236Z,1009.06
2022-10-31T08:28:28.243Z,1009.06
2022-10-31T08:29:28.271Z,1009.07
2022-10-31T08:30:28.207Z,1009.05
2022-10-31T08:31:33.163Z,1009.05
2022-10-31T08:32:28.243Z,1009.09
2022-10-31T08:33:28.175Z,1009.11
2022-10-31T08:34:28.182Z,1009.05
2022-10-31T08:35:28.148Z,1009.06
2022-10-31T08:36:28.145Z,1009.07
2022-10-31T08:37:28.133Z,1009.08
2022-10-31T08:38:28.157Z,1009.11
2022-10-31T08:39:28.118Z,1009.02
2022-10-31T08:40:28.101Z,1009.09
2022-10-31T08:41:28.117Z,1009.05
2022-10-31T08:42:28.103Z,1009.08
2022-10-31T08:43:28.070Z,1009.08
2022-10-31T08:44:28.094Z,1009.02
2022-10-31T08:45:28.055Z,1009.01
2022-10-31T08:46:28.124Z,1008.97
2022-10-31T08:47:28.563Z,1008.99
2022-10-31T08:48:28.014Z,1009.00
2022-10-31T08:49:27.989Z,1009.00
2022-10-31T08:50:27.988Z,1009.01
2022-10-31T08:51:27.971Z,1009.00
2022-10-31T08:52:50.983Z,1009.03
2022-10-31T08:53:27.971Z,1008.99
2022-10-31T08:54:27.971Z,1009.02
2022-10-31T08:55:27.937Z,1008.99
2022-10-31T08:56:27.973Z,1008.99
2022-10-31T08:57:27.919Z,1009.05
2022-10-31T08:58:27.948Z,1008.95
2022-10-31T08:59:27.888Z,1009.07
2022-10-31T09:00:27.871Z,1008.92
2022-10-31T09:01:28.127Z,1008.97
2022-10-31T09:02:27.958Z,1008.96
2022-10-31T09:03:27.899Z,1008.98
2022-10-31T09:04:27.837Z,1008.95
2022-10-31T09:05:27.841Z,1008.99
2022-10-31T09:06:27.938Z,1008.98
2022-10-31T09:07:27.812Z,1008.98
2022-10-31T09:08:27.782Z,1008.97
2022-10-31T09:09:27.815Z,1008.99
2022-10-31T09:10:27.764Z,1008.99
2022-10-31T09:11:27.814Z,1009.00
2022-10-31T09:12:27.739Z,1008.95
2022-10-31T09:13:28.382Z,1008.91
2022-10-31T09:14:27.718Z,1008.96
2022-10-31T09:15:27.826Z,1008.94
2022-10-31T09:16:27.740Z,1008.86
2022-10-31T09:17:27.699Z,1008.91
2022-10-31T09:18:27.674Z,1008.90
2022-10-31T09:19:27.662Z,1008.93
2022-10-31T09:20:27.656Z,1008.90
2022-10-31T09:21:27.652Z,1008.90
2022-10-31T09:22:27.735Z,1008.90
2022-10-31T09:23:27.619Z,1008.90
2022-10-31T09:24:27.620Z,1008.87
2022-10-31T09:25:27.605Z,1008.87
2022-10-31T09:26:27.590Z,1008.88
2022-10-31T09:27:27.610Z,1008.81
2022-10-31T09:28:27.609Z,1008.87
2022-10-31T09:29:27.576Z,1008.89
2022-10-31T09:30:27.601Z,1008.91
2022-10-31T09:31:27.585Z,1008.87
2022-10-31T09:32:27.543Z,1008.80
2022-10-31T09:33:27.531Z,1008.80
2022-10-31T09:34:27.505Z,1008.86
2022-10-31T09:35:27.490Z,1008.80
2022-10-31T09:36:27.475Z,1008.84
2022-10-31T09:37:27.527Z,1008.81
2022-10-31T09:38:27.487Z,1008.81
2022-10-31T09:39:27.452Z,1008.81
2022-10-31T09:40:27.441Z,1008.85
2022-10-31T09:41:27.469Z,1008.81
2022-10-31T09:42:27.411Z,1008.79
2022-10-31T09:43:27.400Z,1008.76
2022-10-31T09:44:27.483Z,1008.79
2022-10-31T09:45:27.474Z,1008.74
2022-10-31T09:46:27.386Z,1008.74
2022-10-31T09:47:27.400Z,1008.77
2022-10-31T09:48:27.355Z,1008.70
2022-10-31T09:49:27.515Z,1008.72
2022-10-31T09:50:27.346Z,1008.74
2022-10-31T09:51:27.322Z,1008.73
2022-10-31T09:52:27.486Z,1008.69
2022-10-31T09:53:27.294Z,1008.67
2022-10-31T09:54:27.279Z,1008.62
2022-10-31T09:55:27.277Z,1008.66
2022-10-31T09:56:27.265Z,1008.64
2022-10-31T09:57:27.323Z,1008.64
2022-10-31T09:58:27.258Z,1008.65
2022-10-31T09:59:27.226Z,1008.62
2022-10-31T10:00:27.255Z,1008.70
2022-10-31T10:01:27.304Z,1008.61
2022-10-31T10:02:27.194Z,1008.63
2022-10-31T10:03:27.237Z,1008.60
2022-10-31T10:04:27.208Z,1008.66
2022-10-31T10:05:27.178Z,1008.64
2022-10-31T10:06:27.149Z,1008.66
2022-10-31T10:07:27.163Z,1008.62
2022-10-31T10:08:27.129Z,1008.61
2022-10-31T10:09:27.204Z,1008.60
2022-10-31T10:10:27.113Z,1008.62
2022-10-31T10:11:27.097Z,1008.66
2022-10-31T10:12:27.141Z,1008.64
2022-10-31T10:13:27.088Z,1008.60
2022-10-31T10:14:27.070Z,1008.58
2022-10-31T10:15:27.063Z,1008.60
2022-10-31T10:16:27.081Z,1008.61
2022-10-31T10:17:27.087Z,1008.62
2022-10-31T10:18:27.105Z,1008.59
2022-10-31T10:19:27.005Z,1008.60
2022-10-31T10:20:27.008Z,1008.63
2022-10-31T10:21:27.043Z,1008.62
2022-10-31T10:22:27.031Z,1008.61
2022-10-31T10:23:27.022Z,1008.59
2022-10-31T10:24:26.968Z,1008.62
2022-10-31T10:25:26.989Z,1008.59
2022-10-31T10:26:27.032Z,1008.61
2022-10-31T10:27:26.944Z,1008.60
2022-10-31T10:28:26.903Z,1008.64
2022-10-31T10:29:26.895Z,1008.59
2022-10-31T10:30:26.904Z,1008.54
2022-10-31T10:31:26.914Z,1008.61
2022-10-31T10:32:26.917Z,1008.55
2022-10-31T10:33:26.903Z,1008.59
2022-10-31T10:34:26.890Z,1008.59
2022-10-31T10:35:26.896Z,1008.59
2022-10-31T10:36:26.850Z,1008.59
2022-10-31T10:37:26.875Z,1008.60
2022-10-31T10:38:26.845Z,1008.61
2022-10-31T10:39:26.783Z,1008.59
2022-10-31T10:40:26.837Z,1008.60
2022-10-31T10:41:31.837Z,1008.59
2022-10-31T10:42:27.774Z,1008.61
2022-10-31T10:43:26.760Z,1008.63
2022-10-31T10:44:26.789Z,1008.59
2022-10-31T10:45:26.717Z,1008.59
2022-10-31T10:46:26.769Z,1008.60
2022-10-31T10:47:26.701Z,1008.60
2022-10-31T10:48:26.689Z,1008.53
2022-10-31T10:49:26.692Z,1008.57
2022-10-31T10:50:26.698Z,1008.50
2022-10-31T10:51:39.045Z,1008.51
2022-10-31T10:52:40.791Z,1008.47
2022-10-31T10:53:27.654Z,1008.47
2022-10-31T10:54:26.702Z,1008.45
2022-10-31T10:55:26.620Z,1008.46
2022-10-31T10:56:26.646Z,1008.46
2022-10-31T10:57:26.591Z,1008.40
2022-10-31T10:58:26.587Z,1008.46
2022-10-31T10:59:26.609Z,1008.45
2022-10-31T11:00:26.708Z,1008.38
2022-10-31T11:01:26.547Z,1008.40
2022-10-31T11:02:26.528Z,1008.39
2022-10-31T11:03:26.522Z,1008.34
2022-10-31T11:04:26.513Z,1008.37
2022-10-31T11:05:26.536Z,1008.34
2022-10-31T11:06:26.540Z,1008.40
2022-10-31T11:07:26.485Z,1008.33
2022-10-31T11:08:27.574Z,1008.32
2022-10-31T11:09:26.549Z,1008.28
2022-10-31T11:10:26.445Z,1008.35
2022-10-31T11:11:26.521Z,1008.34
2022-10-31T11:12:26.431Z,1008.28
2022-10-31T11:13:26.418Z,1008.30
2022-10-31T11:14:26.487Z,1008.30
2022-10-31T11:15:26.436Z,1008.31
2022-10-31T11:16:26.376Z,1008.29
2022-10-31T11:17:26.373Z,1008.30
2022-10-31T11:18:26.484Z,1008.30
2022-10-31T11:19:26.417Z,1008.23
2022-10-31T11:20:26.365Z,1008.20
2022-10-31T11:21:26.383Z,1008.17
2022-10-31T11:22:26.315Z,1008.16
2022-10-31T11:23:26.311Z,1008.16
2022-10-31T11:24:26.295Z,1008.19
2022-10-31T11:25:26.335Z,1008.19
2022-10-31T11:26:26.265Z,1008.18
2022-10-31T11:27:26.292Z,1008.20
2022-10-31T11:28:26.255Z,1008.19
2022-10-31T11:29:26.274Z,1008.17
2022-10-31T11:30:26.231Z,1008.16
2022-10-31T11:31:26.261Z,1008.22
2022-10-31T11:32:26.225Z,1008.20
2022-10-31T11:33:26.193Z,1008.16
2022-10-31T11:34:26.224Z,1008.13
2022-10-31T11:35:26.248Z,1008.12
2022-10-31T11:36:26.166Z,1008.11
2022-10-31T11:37:26.145Z,1008.12
2022-10-31T11:38:26.136Z,1008.08
2022-10-31T11:39:26.215Z,1008.08
2022-10-31T11:40:26.123Z,1008.08
2022-10-31T11:41:26.123Z,1008.05
2022-10-31T11:42:26.136Z,1008.09
2022-10-31T11:43:26.082Z,1008.08
2022-10-31T11:44:26.130Z,1008.07
2022-10-31T11:45:26.069Z,1007.96
2022-10-31T11:46:26.049Z,1008.00
2022-10-31T11:47:26.045Z,1007.99
2022-10-31T11:48:26.024Z,1007.97
2022-10-31T11:49:26.096Z,1007.99
2022-10-31T11:50:26.070Z,1008.03
2022-10-31T11:51:26.008Z,1007.97
2022-10-31T11:52:25.977Z,1007.96
2022-10-31T11:53:25.972Z,1008.04
2022-10-31T11:54:25.977Z,1007.96
2022-10-31T11:55:25.994Z,1007.97
2022-10-31T11:56:25.940Z,1007.92
2022-10-31T11:57:25.943Z,1007.94
2022-10-31T11:58:25.913Z,1007.87
2022-10-31T11:59:25.965Z,1007.92
2022-10-31T12:00:25.888Z,1007.94
2022-10-31T12:01:26.047Z,1007.91
2022-10-31T12:02:25.930Z,1007.96
2022-10-31T12:03:25.867Z,1007.97
2022-10-31T12:04:25.863Z,1007.88
2022-10-31T12:05:25.843Z,1007.89